sensor_id;sensor_type;location;lat;lon;timestamp;P1;durP1;ratioP1;P2;durP2;ratioP2
28353;SDS011;15603;50.878;8.036;2023-04-08T00:01:00;128.32;;;9.40;;
28353;SDS011;15603;50.878;8.036;2023-04-08T00:03:27;150.30;;;10.15;;
28353;SDS011;15603;50.878;8.036;2023-04-08T00:05:55;108.80;;;8.82;;
28353;SDS011;15603;50.878;8.036;2023-04-08T00:08:22;71.97;;;8.90;;
28353;SDS011;15603;50.878;8.036;2023-04-08T00:10:49;87.15;;;10.55;;
28353;SDS011;15603;50.878;8.036;2023-04-08T00:13:16;108.75;;;10.85;;
28353;SDS011;15603;50.878;8.036;2023-04-08T00:15:43;103.22;;;9.88;;
28353;SDS011;15603;50.878;8.036;2023-04-08T00:18:12;85.63;;;9.00;;
28353;SDS011;15603;50.878;8.036;2023-04-08T00:20:41;105.18;;;10.60;;
28353;SDS011;15603;50.878;8.036;2023-04-08T00:23:08;112.38;;;10.73;;
28353;SDS011;15603;50.878;8.036;2023-04-08T00:25:36;143.07;;;9.65;;
28353;SDS011;15603;50.878;8.036;2023-04-08T00:28:03;82.88;;;9.10;;
28353;SDS011;15603;50.878;8.036;2023-04-08T00:30:30;127.88;;;10.48;;
28353;SDS011;15603;50.878;8.036;2023-04-08T00:32:57;125.55;;;10.45;;
28353;SDS011;15603;50.878;8.036;2023-04-08T00:35:25;85.30;;;9.07;;
28353;SDS011;15603;50.878;8.036;2023-04-08T00:37:52;122.10;;;9.85;;
28353;SDS011;15603;50.878;8.036;2023-04-08T00:40:19;69.25;;;9.45;;
28353;SDS011;15603;50.878;8.036;2023-04-08T00:42:46;116.28;;;9.68;;
28353;SDS011;15603;50.878;8.036;2023-04-08T00:45:14;59.55;;;8.43;;
28353;SDS011;15603;50.878;8.036;2023-04-08T00:47:41;104.40;;;9.43;;
28353;SDS011;15603;50.878;8.036;2023-04-08T00:50:08;94.28;;;10.07;;
28353;SDS011;15603;50.878;8.036;2023-04-08T00:52:36;130.40;;;9.75;;
28353;SDS011;15603;50.878;8.036;2023-04-08T00:55:04;99.00;;;9.07;;
28353;SDS011;15603;50.878;8.036;2023-04-08T00:57:32;117.28;;;9.70;;
28353;SDS011;15603;50.878;8.036;2023-04-08T00:59:59;78.82;;;9.23;;
28353;SDS011;15603;50.878;8.036;2023-04-08T01:03:12;175.27;;;11.90;;
28353;SDS011;15603;50.878;8.036;2023-04-08T01:05:29;130.63;;;9.75;;
28353;SDS011;15603;50.878;8.036;2023-04-08T01:08:06;131.75;;;10.45;;
28353;SDS011;15603;50.878;8.036;2023-04-08T01:10:35;74.05;;;8.82;;
28353;SDS011;15603;50.878;8.036;2023-04-08T01:13:04;67.65;;;9.68;;
28353;SDS011;15603;50.878;8.036;2023-04-08T01:15:36;64.43;;;8.60;;
28353;SDS011;15603;50.878;8.036;2023-04-08T01:18:07;45.13;;;8.68;;
28353;SDS011;15603;50.878;8.036;2023-04-08T01:26:12;23.13;;;8.13;;
28353;SDS011;15603;50.878;8.036;2023-04-08T01:28:48;34.35;;;9.20;;
28353;SDS011;15603;50.878;8.036;2023-04-08T01:31:17;46.00;;;10.40;;
28353;SDS011;15603;50.878;8.036;2023-04-08T01:33:45;24.65;;;9.73;;
28353;SDS011;15603;50.878;8.036;2023-04-08T01:36:14;36.47;;;9.00;;
28353;SDS011;15603;50.878;8.036;2023-04-08T01:38:43;61.35;;;10.20;;
28353;SDS011;15603;50.878;8.036;2023-04-08T01:41:14;66.45;;;8.90;;
28353;SDS011;15603;50.878;8.036;2023-04-08T01:43:44;87.13;;;10.52;;
28353;SDS011;15603;50.878;8.036;2023-04-08T01:46:12;72.07;;;10.32;;
28353;SDS011;15603;50.878;8.036;2023-04-08T01:48:41;63.97;;;10.82;;
28353;SDS011;15603;50.878;8.036;2023-04-08T01:51:09;127.95;;;10.60;;
28353;SDS011;15603;50.878;8.036;2023-04-08T01:53:38;117.72;;;12.75;;
28353;SDS011;15603;50.878;8.036;2023-04-08T01:56:06;98.90;;;10.70;;
28353;SDS011;15603;50.878;8.036;2023-04-08T01:58:45;68.85;;;10.65;;
28353;SDS011;15603;50.878;8.036;2023-04-08T02:01:19;81.18;;;10.88;;
28353;SDS011;15603;50.878;8.036;2023-04-08T02:03:48;99.47;;;9.85;;
28353;SDS011;15603;50.878;8.036;2023-04-08T02:06:18;96.00;;;10.68;;
28353;SDS011;15603;50.878;8.036;2023-04-08T02:08:45;81.63;;;9.50;;
28353;SDS011;15603;50.878;8.036;2023-04-08T02:11:12;79.07;;;9.77;;
28353;SDS011;15603;50.878;8.036;2023-04-08T02:13:39;152.35;;;13.30;;
28353;SDS011;15603;50.878;8.036;2023-04-08T02:19:07;86.93;;;10.05;;
28353;SDS011;15603;50.878;8.036;2023-04-08T02:21:42;55.50;;;8.45;;
28353;SDS011;15603;50.878;8.036;2023-04-08T02:24:12;78.55;;;9.38;;
28353;SDS011;15603;50.878;8.036;2023-04-08T02:26:42;67.90;;;9.10;;
28353;SDS011;15603;50.878;8.036;2023-04-08T02:29:11;51.78;;;8.38;;
28353;SDS011;15603;50.878;8.036;2023-04-08T02:31:42;59.80;;;8.88;;
28353;SDS011;15603;50.878;8.036;2023-04-08T02:34:10;71.85;;;9.02;;
28353;SDS011;15603;50.878;8.036;2023-04-08T02:36:38;51.60;;;8.27;;
28353;SDS011;15603;50.878;8.036;2023-04-08T02:39:06;75.18;;;8.95;;
28353;SDS011;15603;50.878;8.036;2023-04-08T02:41:33;35.22;;;9.13;;
28353;SDS011;15603;50.878;8.036;2023-04-08T02:44:01;64.47;;;9.52;;
28353;SDS011;15603;50.878;8.036;2023-04-08T02:46:29;77.82;;;10.90;;
28353;SDS011;15603;50.878;8.036;2023-04-08T02:48:56;52.00;;;11.13;;
28353;SDS011;15603;50.878;8.036;2023-04-08T02:51:23;65.60;;;9.70;;
28353;SDS011;15603;50.878;8.036;2023-04-08T02:53:50;47.90;;;10.02;;
28353;SDS011;15603;50.878;8.036;2023-04-08T02:56:17;99.90;;;9.77;;
28353;SDS011;15603;50.878;8.036;2023-04-08T02:58:45;55.47;;;8.98;;
28353;SDS011;15603;50.878;8.036;2023-04-08T03:01:12;92.80;;;11.18;;
28353;SDS011;15603;50.878;8.036;2023-04-08T03:03:39;114.90;;;9.88;;
28353;SDS011;15603;50.878;8.036;2023-04-08T03:06:07;56.40;;;8.52;;
28353;SDS011;15603;50.878;8.036;2023-04-08T03:08:34;69.20;;;8.93;;
28353;SDS011;15603;50.878;8.036;2023-04-08T03:11:01;71.28;;;10.00;;
28353;SDS011;15603;50.878;8.036;2023-04-08T03:13:28;76.22;;;9.13;;
28353;SDS011;15603;50.878;8.036;2023-04-08T03:15:55;47.65;;;7.53;;
28353;SDS011;15603;50.878;8.036;2023-04-08T03:18:22;58.58;;;6.93;;
28353;SDS011;15603;50.878;8.036;2023-04-08T03:20:50;84.70;;;7.10;;
28353;SDS011;15603;50.878;8.036;2023-04-08T03:23:17;97.00;;;7.65;;
28353;SDS011;15603;50.878;8.036;2023-04-08T03:25:44;49.70;;;7.43;;
28353;SDS011;15603;50.878;8.036;2023-04-08T03:28:11;78.68;;;7.78;;
28353;SDS011;15603;50.878;8.036;2023-04-08T03:30:39;54.42;;;7.47;;
28353;SDS011;15603;50.878;8.036;2023-04-08T03:33:06;111.72;;;9.45;;
28353;SDS011;15603;50.878;8.036;2023-04-08T03:35:34;96.22;;;8.77;;
28353;SDS011;15603;50.878;8.036;2023-04-08T03:38:01;38.63;;;7.10;;
28353;SDS011;15603;50.878;8.036;2023-04-08T03:40:28;74.40;;;8.43;;
28353;SDS011;15603;50.878;8.036;2023-04-08T03:42:55;81.43;;;8.65;;
28353;SDS011;15603;50.878;8.036;2023-04-08T03:45:22;137.73;;;9.90;;
28353;SDS011;15603;50.878;8.036;2023-04-08T03:47:50;91.88;;;8.15;;
28353;SDS011;15603;50.878;8.036;2023-04-08T03:50:17;183.43;;;9.52;;
28353;SDS011;15603;50.878;8.036;2023-04-08T03:52:44;147.27;;;10.70;;
28353;SDS011;15603;50.878;8.036;2023-04-08T03:55:11;163.02;;;11.18;;
28353;SDS011;15603;50.878;8.036;2023-04-08T03:57:38;61.60;;;8.77;;
28353;SDS011;15603;50.878;8.036;2023-04-08T04:00:05;87.20;;;8.88;;
28353;SDS011;15603;50.878;8.036;2023-04-08T04:05:05;108.00;;;9.27;;
28353;SDS011;15603;50.878;8.036;2023-04-08T04:07:32;132.85;;;10.25;;
28353;SDS011;15603;50.878;8.036;2023-04-08T04:09:59;85.32;;;9.20;;
28353;SDS011;15603;50.878;8.036;2023-04-08T04:12:28;91.18;;;10.15;;
28353;SDS011;15603;50.878;8.036;2023-04-08T04:14:55;99.82;;;9.13;;
28353;SDS011;15603;50.878;8.036;2023-04-08T04:17:22;95.82;;;8.25;;
28353;SDS011;15603;50.878;8.036;2023-04-08T04:19:49;139.55;;;13.00;;
28353;SDS011;15603;50.878;8.036;2023-04-08T04:22:16;87.88;;;9.40;;
28353;SDS011;15603;50.878;8.036;2023-04-08T04:24:47;108.75;;;9.82;;
28353;SDS011;15603;50.878;8.036;2023-04-08T04:27:15;68.70;;;7.93;;
28353;SDS011;15603;50.878;8.036;2023-04-08T04:29:43;83.28;;;8.77;;
28353;SDS011;15603;50.878;8.036;2023-04-08T04:32:10;27.45;;;8.05;;
28353;SDS011;15603;50.878;8.036;2023-04-08T04:34:37;37.70;;;8.13;;
28353;SDS011;15603;50.878;8.036;2023-04-08T04:37:04;23.02;;;8.15;;
28353;SDS011;15603;50.878;8.036;2023-04-08T04:39:32;26.92;;;7.20;;
28353;SDS011;15603;50.878;8.036;2023-04-08T04:41:59;45.88;;;8.40;;
28353;SDS011;15603;50.878;8.036;2023-04-08T04:44:26;38.30;;;9.70;;
28353;SDS011;15603;50.878;8.036;2023-04-08T04:46:53;54.28;;;8.77;;
28353;SDS011;15603;50.878;8.036;2023-04-08T04:49:21;53.40;;;9.45;;
28353;SDS011;15603;50.878;8.036;2023-04-08T04:51:48;32.50;;;8.60;;
28353;SDS011;15603;50.878;8.036;2023-04-08T04:54:15;61.90;;;9.02;;
28353;SDS011;15603;50.878;8.036;2023-04-08T04:56:42;38.63;;;9.38;;
28353;SDS011;15603;50.878;8.036;2023-04-08T04:59:09;56.47;;;8.70;;
28353;SDS011;15603;50.878;8.036;2023-04-08T05:01:36;90.20;;;10.43;;
28353;SDS011;15603;50.878;8.036;2023-04-08T05:04:03;39.90;;;9.52;;
28353;SDS011;15603;50.878;8.036;2023-04-08T05:06:31;101.25;;;10.93;;
28353;SDS011;15603;50.878;8.036;2023-04-08T05:08:58;97.55;;;12.55;;
28353;SDS011;15603;50.878;8.036;2023-04-08T05:11:25;42.63;;;9.25;;
28353;SDS011;15603;50.878;8.036;2023-04-08T05:13:52;53.53;;;10.18;;
28353;SDS011;15603;50.878;8.036;2023-04-08T05:16:20;51.13;;;9.98;;
28353;SDS011;15603;50.878;8.036;2023-04-08T05:18:47;65.95;;;9.75;;
28353;SDS011;15603;50.878;8.036;2023-04-08T05:21:15;62.92;;;9.77;;
28353;SDS011;15603;50.878;8.036;2023-04-08T05:23:42;53.22;;;8.32;;
28353;SDS011;15603;50.878;8.036;2023-04-08T05:26:09;28.85;;;8.20;;
28353;SDS011;15603;50.878;8.036;2023-04-08T05:28:36;71.57;;;10.32;;
28353;SDS011;15603;50.878;8.036;2023-04-08T05:31:03;52.53;;;10.05;;
28353;SDS011;15603;50.878;8.036;2023-04-08T05:33:30;71.28;;;9.50;;
28353;SDS011;15603;50.878;8.036;2023-04-08T05:35:57;44.70;;;10.05;;
28353;SDS011;15603;50.878;8.036;2023-04-08T05:38:24;57.08;;;10.35;;
28353;SDS011;15603;50.878;8.036;2023-04-08T05:40:51;29.55;;;8.90;;
28353;SDS011;15603;50.878;8.036;2023-04-08T05:43:19;29.33;;;9.07;;
28353;SDS011;15603;50.878;8.036;2023-04-08T05:45:46;21.27;;;8.90;;
28353;SDS011;15603;50.878;8.036;2023-04-08T05:48:13;18.70;;;9.85;;
28353;SDS011;15603;50.878;8.036;2023-04-08T05:50:40;24.05;;;10.45;;
28353;SDS011;15603;50.878;8.036;2023-04-08T05:53:07;18.15;;;8.48;;
28353;SDS011;15603;50.878;8.036;2023-04-08T05:55:35;20.10;;;9.38;;
28353;SDS011;15603;50.878;8.036;2023-04-08T05:58:02;22.85;;;10.85;;
28353;SDS011;15603;50.878;8.036;2023-04-08T06:00:35;21.15;;;10.43;;
28353;SDS011;15603;50.878;8.036;2023-04-08T06:03:02;21.60;;;10.05;;
28353;SDS011;15603;50.878;8.036;2023-04-08T06:05:30;24.75;;;10.07;;
28353;SDS011;15603;50.878;8.036;2023-04-08T06:07:57;27.25;;;10.52;;
28353;SDS011;15603;50.878;8.036;2023-04-08T06:10:24;24.30;;;10.30;;
28353;SDS011;15603;50.878;8.036;2023-04-08T06:12:51;26.55;;;11.38;;
28353;SDS011;15603;50.878;8.036;2023-04-08T06:15:18;22.63;;;11.40;;
28353;SDS011;15603;50.878;8.036;2023-04-08T06:17:45;22.50;;;11.35;;
28353;SDS011;15603;50.878;8.036;2023-04-08T06:20:12;21.73;;;10.77;;
28353;SDS011;15603;50.878;8.036;2023-04-08T06:22:39;23.30;;;10.18;;
28353;SDS011;15603;50.878;8.036;2023-04-08T06:25:07;26.60;;;9.85;;
28353;SDS011;15603;50.878;8.036;2023-04-08T06:27:34;25.73;;;11.02;;
28353;SDS011;15603;50.878;8.036;2023-04-08T06:30:01;28.00;;;10.68;;
28353;SDS011;15603;50.878;8.036;2023-04-08T06:32:28;24.92;;;10.90;;
28353;SDS011;15603;50.878;8.036;2023-04-08T06:34:55;26.90;;;12.35;;
28353;SDS011;15603;50.878;8.036;2023-04-08T06:37:22;23.77;;;10.45;;
28353;SDS011;15603;50.878;8.036;2023-04-08T06:39:50;24.70;;;11.38;;
28353;SDS011;15603;50.878;8.036;2023-04-08T06:42:17;20.42;;;9.93;;
28353;SDS011;15603;50.878;8.036;2023-04-08T06:45:09;24.95;;;9.95;;
28353;SDS011;15603;50.878;8.036;2023-04-08T06:47:36;23.92;;;10.57;;
28353;SDS011;15603;50.878;8.036;2023-04-08T06:50:03;23.13;;;11.13;;
28353;SDS011;15603;50.878;8.036;2023-04-08T06:52:31;21.40;;;11.55;;
28353;SDS011;15603;50.878;8.036;2023-04-08T06:54:58;23.92;;;12.60;;
28353;SDS011;15603;50.878;8.036;2023-04-08T06:57:25;19.13;;;9.93;;
28353;SDS011;15603;50.878;8.036;2023-04-08T06:59:52;21.75;;;10.88;;
28353;SDS011;15603;50.878;8.036;2023-04-08T07:02:20;22.40;;;10.68;;
28353;SDS011;15603;50.878;8.036;2023-04-08T07:04:48;22.65;;;11.13;;
28353;SDS011;15603;50.878;8.036;2023-04-08T07:07:15;23.33;;;11.98;;
28353;SDS011;15603;50.878;8.036;2023-04-08T07:09:42;22.75;;;11.30;;
28353;SDS011;15603;50.878;8.036;2023-04-08T07:12:11;21.98;;;11.80;;
28353;SDS011;15603;50.878;8.036;2023-04-08T07:14:38;23.40;;;12.25;;
28353;SDS011;15603;50.878;8.036;2023-04-08T07:17:06;21.63;;;12.13;;
28353;SDS011;15603;50.878;8.036;2023-04-08T07:19:33;22.15;;;12.70;;
28353;SDS011;15603;50.878;8.036;2023-04-08T07:22:00;23.30;;;12.20;;
28353;SDS011;15603;50.878;8.036;2023-04-08T07:24:28;24.35;;;12.70;;
28353;SDS011;15603;50.878;8.036;2023-04-08T07:26:55;23.50;;;13.52;;
28353;SDS011;15603;50.878;8.036;2023-04-08T07:29:22;25.15;;;13.35;;
28353;SDS011;15603;50.878;8.036;2023-04-08T07:31:49;28.98;;;13.88;;
28353;SDS011;15603;50.878;8.036;2023-04-08T07:34:17;23.05;;;13.43;;
28353;SDS011;15603;50.878;8.036;2023-04-08T07:36:44;25.95;;;13.27;;
28353;SDS011;15603;50.878;8.036;2023-04-08T07:39:11;26.63;;;13.02;;
28353;SDS011;15603;50.878;8.036;2023-04-08T07:41:38;26.48;;;12.40;;
28353;SDS011;15603;50.878;8.036;2023-04-08T07:44:05;22.55;;;12.85;;
28353;SDS011;15603;50.878;8.036;2023-04-08T07:46:36;23.10;;;12.88;;
28353;SDS011;15603;50.878;8.036;2023-04-08T07:49:04;28.38;;;13.57;;
28353;SDS011;15603;50.878;8.036;2023-04-08T07:51:31;21.48;;;12.75;;
28353;SDS011;15603;50.878;8.036;2023-04-08T07:53:59;41.85;;;13.10;;
28353;SDS011;15603;50.878;8.036;2023-04-08T07:56:26;26.15;;;13.65;;
28353;SDS011;15603;50.878;8.036;2023-04-08T07:58:53;22.90;;;12.70;;
28353;SDS011;15603;50.878;8.036;2023-04-08T08:01:21;22.48;;;12.48;;
28353;SDS011;15603;50.878;8.036;2023-04-08T08:03:49;29.15;;;13.38;;
28353;SDS011;15603;50.878;8.036;2023-04-08T08:06:19;30.92;;;13.40;;
28353;SDS011;15603;50.878;8.036;2023-04-08T08:08:46;26.90;;;12.82;;
28353;SDS011;15603;50.878;8.036;2023-04-08T08:11:13;23.25;;;12.80;;
28353;SDS011;15603;50.878;8.036;2023-04-08T08:13:41;27.88;;;14.10;;
28353;SDS011;15603;50.878;8.036;2023-04-08T08:16:08;21.67;;;12.75;;
28353;SDS011;15603;50.878;8.036;2023-04-08T08:18:37;20.73;;;12.95;;
28353;SDS011;15603;50.878;8.036;2023-04-08T08:21:06;24.73;;;12.88;;
28353;SDS011;15603;50.878;8.036;2023-04-08T08:23:33;22.88;;;13.75;;
28353;SDS011;15603;50.878;8.036;2023-04-08T08:26:01;28.98;;;14.52;;
28353;SDS011;15603;50.878;8.036;2023-04-08T08:28:29;22.35;;;13.45;;
28353;SDS011;15603;50.878;8.036;2023-04-08T08:30:57;24.05;;;14.80;;
28353;SDS011;15603;50.878;8.036;2023-04-08T08:33:24;22.77;;;14.57;;
28353;SDS011;15603;50.878;8.036;2023-04-08T08:35:52;25.83;;;15.23;;
28353;SDS011;15603;50.878;8.036;2023-04-08T08:38:19;25.38;;;15.05;;
28353;SDS011;15603;50.878;8.036;2023-04-08T08:40:46;22.95;;;14.80;;
28353;SDS011;15603;50.878;8.036;2023-04-08T08:43:21;25.10;;;14.68;;
28353;SDS011;15603;50.878;8.036;2023-04-08T08:45:48;26.80;;;15.32;;
28353;SDS011;15603;50.878;8.036;2023-04-08T08:48:15;26.48;;;15.02;;
28353;SDS011;15603;50.878;8.036;2023-04-08T08:50:43;25.70;;;15.50;;
28353;SDS011;15603;50.878;8.036;2023-04-08T08:53:10;25.45;;;15.75;;
28353;SDS011;15603;50.878;8.036;2023-04-08T08:55:37;24.30;;;14.75;;
28353;SDS011;15603;50.878;8.036;2023-04-08T08:58:26;26.75;;;15.50;;
28353;SDS011;15603;50.878;8.036;2023-04-08T09:00:53;26.00;;;15.68;;
28353;SDS011;15603;50.878;8.036;2023-04-08T09:03:24;25.77;;;15.77;;
28353;SDS011;15603;50.878;8.036;2023-04-08T09:05:54;25.70;;;15.60;;
28353;SDS011;15603;50.878;8.036;2023-04-08T09:08:35;30.00;;;16.23;;
28353;SDS011;15603;50.878;8.036;2023-04-08T09:11:12;23.02;;;15.38;;
28353;SDS011;15603;50.878;8.036;2023-04-08T09:13:41;23.33;;;14.35;;
28353;SDS011;15603;50.878;8.036;2023-04-08T09:16:09;27.80;;;16.17;;
28353;SDS011;15603;50.878;8.036;2023-04-08T09:18:37;32.05;;;16.13;;
28353;SDS011;15603;50.878;8.036;2023-04-08T09:21:05;24.85;;;15.23;;
28353;SDS011;15603;50.878;8.036;2023-04-08T09:26:11;31.23;;;16.92;;
28353;SDS011;15603;50.878;8.036;2023-04-08T09:28:42;26.50;;;16.48;;
28353;SDS011;15603;50.878;8.036;2023-04-08T09:31:17;32.83;;;17.25;;
28353;SDS011;15603;50.878;8.036;2023-04-08T09:33:53;28.13;;;16.60;;
28353;SDS011;15603;50.878;8.036;2023-04-08T09:36:24;33.47;;;17.52;;
28353;SDS011;15603;50.878;8.036;2023-04-08T09:38:54;24.73;;;15.93;;
28353;SDS011;15603;50.878;8.036;2023-04-08T09:41:22;27.33;;;17.45;;
28353;SDS011;15603;50.878;8.036;2023-04-08T09:43:54;27.95;;;17.42;;
28353;SDS011;15603;50.878;8.036;2023-04-08T09:46:25;29.10;;;17.58;;
28353;SDS011;15603;50.878;8.036;2023-04-08T09:48:57;32.97;;;16.30;;
28353;SDS011;15603;50.878;8.036;2023-04-08T09:51:31;28.25;;;16.83;;
28353;SDS011;15603;50.878;8.036;2023-04-08T09:54:02;28.30;;;15.93;;
28353;SDS011;15603;50.878;8.036;2023-04-08T09:56:43;25.98;;;16.08;;
28353;SDS011;15603;50.878;8.036;2023-04-08T09:59:16;31.73;;;17.38;;
28353;SDS011;15603;50.878;8.036;2023-04-08T10:01:51;28.90;;;18.13;;
28353;SDS011;15603;50.878;8.036;2023-04-08T10:04:21;28.52;;;17.73;;
28353;SDS011;15603;50.878;8.036;2023-04-08T10:06:53;29.05;;;18.30;;
28353;SDS011;15603;50.878;8.036;2023-04-08T10:09:26;25.83;;;15.55;;
28353;SDS011;15603;50.878;8.036;2023-04-08T10:11:55;25.10;;;16.05;;
28353;SDS011;15603;50.878;8.036;2023-04-08T10:14:22;27.52;;;15.73;;
28353;SDS011;15603;50.878;8.036;2023-04-08T10:16:49;27.67;;;16.10;;
28353;SDS011;15603;50.878;8.036;2023-04-08T10:19:35;30.60;;;18.17;;
28353;SDS011;15603;50.878;8.036;2023-04-08T10:27:41;27.73;;;16.17;;
28353;SDS011;15603;50.878;8.036;2023-04-08T10:32:52;31.70;;;15.48;;
28353;SDS011;15603;50.878;8.036;2023-04-08T10:35:29;26.88;;;16.10;;
28353;SDS011;15603;50.878;8.036;2023-04-08T10:38:03;24.25;;;15.32;;
28353;SDS011;15603;50.878;8.036;2023-04-08T10:40:34;23.67;;;15.30;;
28353;SDS011;15603;50.878;8.036;2023-04-08T10:43:04;25.70;;;16.58;;
28353;SDS011;15603;50.878;8.036;2023-04-08T10:45:31;23.13;;;15.23;;
28353;SDS011;15603;50.878;8.036;2023-04-08T10:48:12;29.58;;;16.95;;
28353;SDS011;15603;50.878;8.036;2023-04-08T10:50:39;28.33;;;15.93;;
28353;SDS011;15603;50.878;8.036;2023-04-08T10:53:07;30.13;;;15.30;;
28353;SDS011;15603;50.878;8.036;2023-04-08T10:55:35;24.42;;;14.88;;
28353;SDS011;15603;50.878;8.036;2023-04-08T10:58:06;26.65;;;15.50;;
28353;SDS011;15603;50.878;8.036;2023-04-08T11:00:38;25.90;;;16.13;;
28353;SDS011;15603;50.878;8.036;2023-04-08T11:03:06;25.02;;;14.65;;
28353;SDS011;15603;50.878;8.036;2023-04-08T11:05:35;24.98;;;14.88;;
28353;SDS011;15603;50.878;8.036;2023-04-08T11:08:04;27.70;;;15.23;;
28353;SDS011;15603;50.878;8.036;2023-04-08T11:10:35;22.90;;;14.88;;
28353;SDS011;15603;50.878;8.036;2023-04-08T11:15:36;23.33;;;14.57;;
28353;SDS011;15603;50.878;8.036;2023-04-08T11:18:04;25.73;;;15.18;;
28353;SDS011;15603;50.878;8.036;2023-04-08T11:20:32;23.40;;;14.20;;
28353;SDS011;15603;50.878;8.036;2023-04-08T11:23:02;22.80;;;13.32;;
28353;SDS011;15603;50.878;8.036;2023-04-08T11:25:29;24.95;;;14.18;;
28353;SDS011;15603;50.878;8.036;2023-04-08T11:27:57;18.55;;;12.18;;
28353;SDS011;15603;50.878;8.036;2023-04-08T11:30:25;20.25;;;12.48;;
28353;SDS011;15603;50.878;8.036;2023-04-08T11:32:57;20.30;;;11.82;;
28353;SDS011;15603;50.878;8.036;2023-04-08T11:35:28;19.83;;;12.02;;
28353;SDS011;15603;50.878;8.036;2023-04-08T11:37:56;22.25;;;11.65;;
28353;SDS011;15603;50.878;8.036;2023-04-08T11:40:24;21.70;;;11.95;;
28353;SDS011;15603;50.878;8.036;2023-04-08T11:42:52;20.33;;;11.63;;
28353;SDS011;15603;50.878;8.036;2023-04-08T11:45:19;17.67;;;10.15;;
28353;SDS011;15603;50.878;8.036;2023-04-08T11:47:47;14.05;;;8.27;;
28353;SDS011;15603;50.878;8.036;2023-04-08T11:50:24;13.35;;;8.32;;
28353;SDS011;15603;50.878;8.036;2023-04-08T11:52:52;15.70;;;7.75;;
28353;SDS011;15603;50.878;8.036;2023-04-08T11:57:54;14.30;;;6.53;;
28353;SDS011;15603;50.878;8.036;2023-04-08T12:00:22;13.98;;;5.57;;
28353;SDS011;15603;50.878;8.036;2023-04-08T12:02:50;10.10;;;6.10;;
28353;SDS011;15603;50.878;8.036;2023-04-08T12:05:17;13.93;;;6.63;;
28353;SDS011;15603;50.878;8.036;2023-04-08T12:07:45;8.43;;;4.80;;
28353;SDS011;15603;50.878;8.036;2023-04-08T12:10:12;9.73;;;5.20;;
28353;SDS011;15603;50.878;8.036;2023-04-08T12:12:39;11.38;;;5.57;;
28353;SDS011;15603;50.878;8.036;2023-04-08T12:15:07;10.18;;;5.45;;
28353;SDS011;15603;50.878;8.036;2023-04-08T12:17:35;9.77;;;5.43;;
28353;SDS011;15603;50.878;8.036;2023-04-08T12:20:04;8.85;;;5.55;;
28353;SDS011;15603;50.878;8.036;2023-04-08T12:22:32;11.05;;;5.15;;
28353;SDS011;15603;50.878;8.036;2023-04-08T12:24:59;11.65;;;5.40;;
28353;SDS011;15603;50.878;8.036;2023-04-08T12:27:29;12.13;;;5.50;;
28353;SDS011;15603;50.878;8.036;2023-04-08T12:29:59;9.82;;;5.00;;
28353;SDS011;15603;50.878;8.036;2023-04-08T12:32:26;10.15;;;5.25;;
28353;SDS011;15603;50.878;8.036;2023-04-08T12:34:54;11.05;;;5.38;;
28353;SDS011;15603;50.878;8.036;2023-04-08T12:37:21;11.00;;;5.10;;
28353;SDS011;15603;50.878;8.036;2023-04-08T12:39:48;12.13;;;4.80;;
28353;SDS011;15603;50.878;8.036;2023-04-08T12:42:15;12.80;;;5.32;;
28353;SDS011;15603;50.878;8.036;2023-04-08T12:44:42;10.38;;;5.40;;
28353;SDS011;15603;50.878;8.036;2023-04-08T12:47:10;9.25;;;4.90;;
28353;SDS011;15603;50.878;8.036;2023-04-08T12:49:37;12.38;;;4.95;;
28353;SDS011;15603;50.878;8.036;2023-04-08T12:52:07;9.50;;;4.85;;
28353;SDS011;15603;50.878;8.036;2023-04-08T12:54:34;8.85;;;4.97;;
28353;SDS011;15603;50.878;8.036;2023-04-08T12:57:01;10.05;;;5.03;;
28353;SDS011;15603;50.878;8.036;2023-04-08T12:59:28;13.93;;;4.85;;
28353;SDS011;15603;50.878;8.036;2023-04-08T13:01:55;9.80;;;5.18;;
28353;SDS011;15603;50.878;8.036;2023-04-08T13:04:22;9.48;;;4.63;;
28353;SDS011;15603;50.878;8.036;2023-04-08T13:06:49;6.28;;;4.10;;
28353;SDS011;15603;50.878;8.036;2023-04-08T13:09:17;7.68;;;4.13;;
28353;SDS011;15603;50.878;8.036;2023-04-08T13:11:44;12.15;;;4.32;;
28353;SDS011;15603;50.878;8.036;2023-04-08T13:14:11;7.75;;;3.88;;
28353;SDS011;15603;50.878;8.036;2023-04-08T13:16:39;6.00;;;4.13;;
28353;SDS011;15603;50.878;8.036;2023-04-08T13:19:06;5.10;;;3.47;;
28353;SDS011;15603;50.878;8.036;2023-04-08T13:21:33;7.65;;;3.95;;
28353;SDS011;15603;50.878;8.036;2023-04-08T13:24:01;6.00;;;3.63;;
28353;SDS011;15603;50.878;8.036;2023-04-08T13:26:28;6.55;;;3.88;;
28353;SDS011;15603;50.878;8.036;2023-04-08T13:28:56;4.53;;;3.20;;
28353;SDS011;15603;50.878;8.036;2023-04-08T13:31:24;8.60;;;2.67;;
28353;SDS011;15603;50.878;8.036;2023-04-08T13:33:51;5.43;;;3.28;;
28353;SDS011;15603;50.878;8.036;2023-04-08T13:36:23;6.22;;;2.88;;
28353;SDS011;15603;50.878;8.036;2023-04-08T13:38:50;6.57;;;3.42;;
28353;SDS011;15603;50.878;8.036;2023-04-08T13:41:18;5.47;;;3.40;;
28353;SDS011;15603;50.878;8.036;2023-04-08T13:43:46;5.68;;;3.58;;
28353;SDS011;15603;50.878;8.036;2023-04-08T13:46:14;8.02;;;3.38;;
28353;SDS011;15603;50.878;8.036;2023-04-08T13:48:42;6.45;;;3.15;;
28353;SDS011;15603;50.878;8.036;2023-04-08T13:51:09;5.55;;;3.25;;
28353;SDS011;15603;50.878;8.036;2023-04-08T13:53:36;7.53;;;3.67;;
28353;SDS011;15603;50.878;8.036;2023-04-08T13:56:03;6.20;;;3.30;;
28353;SDS011;15603;50.878;8.036;2023-04-08T13:58:30;6.13;;;3.78;;
28353;SDS011;15603;50.878;8.036;2023-04-08T14:00:57;6.95;;;3.40;;
28353;SDS011;15603;50.878;8.036;2023-04-08T14:03:24;4.75;;;2.60;;
28353;SDS011;15603;50.878;8.036;2023-04-08T14:05:52;6.00;;;3.22;;
28353;SDS011;15603;50.878;8.036;2023-04-08T14:08:19;10.30;;;3.30;;
28353;SDS011;15603;50.878;8.036;2023-04-08T14:10:51;9.27;;;3.53;;
28353;SDS011;15603;50.878;8.036;2023-04-08T14:13:19;7.03;;;2.97;;
28353;SDS011;15603;50.878;8.036;2023-04-08T14:15:46;4.35;;;2.65;;
28353;SDS011;15603;50.878;8.036;2023-04-08T14:18:15;3.17;;;2.30;;
28353;SDS011;15603;50.878;8.036;2023-04-08T14:20:45;4.30;;;2.83;;
28353;SDS011;15603;50.878;8.036;2023-04-08T14:23:12;4.30;;;2.20;;
28353;SDS011;15603;50.878;8.036;2023-04-08T14:25:39;4.30;;;2.78;;
28353;SDS011;15603;50.878;8.036;2023-04-08T14:28:07;4.22;;;2.63;;
28353;SDS011;15603;50.878;8.036;2023-04-08T14:30:34;6.55;;;3.00;;
28353;SDS011;15603;50.878;8.036;2023-04-08T14:33:03;4.55;;;2.75;;
28353;SDS011;15603;50.878;8.036;2023-04-08T14:35:34;3.92;;;2.22;;
28353;SDS011;15603;50.878;8.036;2023-04-08T14:38:01;6.22;;;2.80;;
28353;SDS011;15603;50.878;8.036;2023-04-08T14:40:28;6.50;;;2.85;;
28353;SDS011;15603;50.878;8.036;2023-04-08T14:42:55;4.80;;;2.38;;
28353;SDS011;15603;50.878;8.036;2023-04-08T14:45:22;5.38;;;3.15;;
28353;SDS011;15603;50.878;8.036;2023-04-08T14:47:49;5.75;;;3.20;;
28353;SDS011;15603;50.878;8.036;2023-04-08T14:50:17;7.25;;;3.28;;
28353;SDS011;15603;50.878;8.036;2023-04-08T14:52:45;9.13;;;4.07;;
28353;SDS011;15603;50.878;8.036;2023-04-08T14:55:14;6.32;;;3.15;;
28353;SDS011;15603;50.878;8.036;2023-04-08T14:57:41;10.23;;;4.70;;
28353;SDS011;15603;50.878;8.036;2023-04-08T15:00:08;6.78;;;4.28;;
28353;SDS011;15603;50.878;8.036;2023-04-08T15:02:36;10.25;;;4.85;;